sensor_id;sensor_type;location;lat;lon;timestamp;temperature;humidity
15969;DHT22;8085;53.472;9.794;2022-07-11T00:00:26;14.80;36.20
15969;DHT22;8085;53.472;9.794;2022-07-11T00:02:53;14.80;52.20
15969;DHT22;8085;53.472;9.794;2022-07-11T00:05:20;14.80;41.80
15969;DHT22;8085;53.472;9.794;2022-07-11T00:07:47;14.90;45.00
15969;DHT22;8085;53.472;9.794;2022-07-11T00:10:14;14.90;38.10
15969;DHT22;8085;53.472;9.794;2022-07-11T00:12:41;14.70;42.50
15969;DHT22;8085;53.472;9.794;2022-07-11T00:15:10;14.70;53.40
15969;DHT22;8085;53.472;9.794;2022-07-11T00:17:42;14.70;56.00
15969;DHT22;8085;53.472;9.794;2022-07-11T00:20:10;14.80;52.20
15969;DHT22;8085;53.472;9.794;2022-07-11T00:22:37;14.60;47.40
15969;DHT22;8085;53.472;9.794;2022-07-11T00:25:07;14.50;56.10
15969;DHT22;8085;53.472;9.794;2022-07-11T00:27:40;14.50;66.90
15969;DHT22;8085;53.472;9.794;2022-07-11T00:30:09;14.40;66.30
15969;DHT22;8085;53.472;9.794;2022-07-11T00:32:36;14.40;66.80
15969;DHT22;8085;53.472;9.794;2022-07-11T00:35:04;14.40;68.90
15969;DHT22;8085;53.472;9.794;2022-07-11T00:37:31;14.50;71.70
15969;DHT22;8085;53.472;9.794;2022-07-11T00:40:04;14.50;65.00
15969;DHT22;8085;53.472;9.794;2022-07-11T00:42:31;14.40;71.20
15969;DHT22;8085;53.472;9.794;2022-07-11T00:44:58;14.40;71.90
15969;DHT22;8085;53.472;9.794;2022-07-11T00:47:29;14.60;68.80
15969;DHT22;8085;53.472;9.794;2022-07-11T00:49:56;14.50;58.70
15969;DHT22;8085;53.472;9.794;2022-07-11T00:52:26;14.40;71.50
15969;DHT22;8085;53.472;9.794;2022-07-11T00:54:54;14.40;73.50
15969;DHT22;8085;53.472;9.794;2022-07-11T00:57:23;14.50;66.10
15969;DHT22;8085;53.472;9.794;2022-07-11T00:59:50;14.60;73.30
15969;DHT22;8085;53.472;9.794;2022-07-11T01:02:20;14.60;70.70
15969;DHT22;8085;53.472;9.794;2022-07-11T01:04:49;14.60;76.50
15969;DHT22;8085;53.472;9.794;2022-07-11T01:07:21;14.70;75.90
15969;DHT22;8085;53.472;9.794;2022-07-11T01:09:50;14.70;79.30
15969;DHT22;8085;53.472;9.794;2022-07-11T01:12:17;14.60;73.50
15969;DHT22;8085;53.472;9.794;2022-07-11T01:14:51;14.60;86.60
15969;DHT22;8085;53.472;9.794;2022-07-11T01:17:18;14.60;88.70
15969;DHT22;8085;53.472;9.794;2022-07-11T01:19:53;14.70;84.80
15969;DHT22;8085;53.472;9.794;2022-07-11T01:22:31;14.60;78.40
15969;DHT22;8085;53.472;9.794;2022-07-11T01:25:03;14.60;90.60
15969;DHT22;8085;53.472;9.794;2022-07-11T01:27:31;14.50;91.00
15969;DHT22;8085;53.472;9.794;2022-07-11T01:30:05;14.50;92.10
15969;DHT22;8085;53.472;9.794;2022-07-11T01:32:35;14.40;91.40
15969;DHT22;8085;53.472;9.794;2022-07-11T01:35:02;14.20;98.80
15969;DHT22;8085;53.472;9.794;2022-07-11T01:37:29;14.30;99.90
15969;DHT22;8085;53.472;9.794;2022-07-11T01:39:56;14.30;99.70
15969;DHT22;8085;53.472;9.794;2022-07-11T01:42:27;14.40;99.60
15969;DHT22;8085;53.472;9.794;2022-07-11T01:45:00;14.40;99.10
15969;DHT22;8085;53.472;9.794;2022-07-11T01:47:27;14.50;95.00
15969;DHT22;8085;53.472;9.794;2022-07-11T01:49:57;14.50;97.50
15969;DHT22;8085;53.472;9.794;2022-07-11T01:52:26;14.60;93.80
15969;DHT22;8085;53.472;9.794;2022-07-11T01:54:56;14.50;93.70
15969;DHT22;8085;53.472;9.794;2022-07-11T01:57:28;14.50;93.70
15969;DHT22;8085;53.472;9.794;2022-07-11T01:59:58;14.50;95.90
15969;DHT22;8085;53.472;9.794;2022-07-11T02:02:25;14.40;98.80
15969;DHT22;8085;53.472;9.794;2022-07-11T02:04:52;14.40;97.10
15969;DHT22;8085;53.472;9.794;2022-07-11T02:07:20;14.40;97.50
15969;DHT22;8085;53.472;9.794;2022-07-11T02:10:01;14.40;95.30
15969;DHT22;8085;53.472;9.794;2022-07-11T02:12:38;14.40;95.30
15969;DHT22;8085;53.472;9.794;2022-07-11T02:15:09;14.40;95.60
15969;DHT22;8085;53.472;9.794;2022-07-11T02:17:39;14.40;95.30
15969;DHT22;8085;53.472;9.794;2022-07-11T02:20:07;14.30;96.00
15969;DHT22;8085;53.472;9.794;2022-07-11T02:22:34;14.20;96.10
15969;DHT22;8085;53.472;9.794;2022-07-11T02:25:02;14.20;98.50
15969;DHT22;8085;53.472;9.794;2022-07-11T02:27:30;14.10;99.90
15969;DHT22;8085;53.472;9.794;2022-07-11T02:29:58;14.20;99.90
15969;DHT22;8085;53.472;9.794;2022-07-11T02:32:25;14.10;97.90
15969;DHT22;8085;53.472;9.794;2022-07-11T02:34:52;14.10;97.50
15969;DHT22;8085;53.472;9.794;2022-07-11T02:37:19;14.10;95.90
15969;DHT22;8085;53.472;9.794;2022-07-11T02:39:46;14.00;94.80
15969;DHT22;8085;53.472;9.794;2022-07-11T02:42:14;14.00;99.50
15969;DHT22;8085;53.472;9.794;2022-07-11T02:44:41;14.10;96.70
15969;DHT22;8085;53.472;9.794;2022-07-11T02:47:11;14.10;96.40
15969;DHT22;8085;53.472;9.794;2022-07-11T02:49:39;14.00;95.30
15969;DHT22;8085;53.472;9.794;2022-07-11T02:52:07;14.00;98.40
15969;DHT22;8085;53.472;9.794;2022-07-11T02:54:34;13.90;98.60
15969;DHT22;8085;53.472;9.794;2022-07-11T02:57:02;13.90;99.90
15969;DHT22;8085;53.472;9.794;2022-07-11T02:59:29;13.80;99.90
15969;DHT22;8085;53.472;9.794;2022-07-11T03:01:56;13.80;99.90
15969;DHT22;8085;53.472;9.794;2022-07-11T03:04:31;13.90;99.90
15969;DHT22;8085;53.472;9.794;2022-07-11T03:07:01;14.00;99.90
15969;DHT22;8085;53.472;9.794;2022-07-11T03:09:33;13.90;99.90
15969;DHT22;8085;53.472;9.794;2022-07-11T03:12:02;13.80;99.90
15969;DHT22;8085;53.472;9.794;2022-07-11T03:14:30;13.70;99.90
15969;DHT22;8085;53.472;9.794;2022-07-11T03:16:57;13.70;99.90
15969;DHT22;8085;53.472;9.794;2022-07-11T03:19:24;13.90;99.90
15969;DHT22;8085;53.472;9.794;2022-07-11T03:21:55;14.00;99.90
15969;DHT22;8085;53.472;9.794;2022-07-11T03:24:22;13.90;99.90
15969;DHT22;8085;53.472;9.794;2022-07-11T03:26:49;13.80;99.90
15969;DHT22;8085;53.472;9.794;2022-07-11T03:29:16;13.70;99.90
15969;DHT22;8085;53.472;9.794;2022-07-11T03:31:43;13.80;99.90
15969;DHT22;8085;53.472;9.794;2022-07-11T03:34:10;13.80;99.90
15969;DHT22;8085;53.472;9.794;2022-07-11T03:36:37;13.80;99.90
15969;DHT22;8085;53.472;9.794;2022-07-11T03:39:08;13.90;99.90
15969;DHT22;8085;53.472;9.794;2022-07-11T03:41:35;14.00;99.90
15969;DHT22;8085;53.472;9.794;2022-07-11T03:44:11;14.00;99.90
15969;DHT22;8085;53.472;9.794;2022-07-11T03:46:42;14.00;99.90
15969;DHT22;8085;53.472;9.794;2022-07-11T03:49:11;14.10;99.90
15969;DHT22;8085;53.472;9.794;2022-07-11T03:51:47;14.10;99.90
15969;DHT22;8085;53.472;9.794;2022-07-11T03:54:16;14.20;99.90
15969;DHT22;8085;53.472;9.794;2022-07-11T03:56:45;14.10;99.90
15969;DHT22;8085;53.472;9.794;2022-07-11T03:59:12;14.10;99.90
15969;DHT22;8085;53.472;9.794;2022-07-11T04:01:42;14.10;99.90
15969;DHT22;8085;53.472;9.794;2022-07-11T04:04:12;14.10;99.90
15969;DHT22;8085;53.472;9.794;2022-07-11T04:06:39;14.20;99.90
15969;DHT22;8085;53.472;9.794;2022-07-11T04:09:11;14.10;99.90
15969;DHT22;8085;53.472;9.794;2022-07-11T04:11:42;14.00;99.90
15969;DHT22;8085;53.472;9.794;2022-07-11T04:14:09;14.00;99.90
15969;DHT22;8085;53.472;9.794;2022-07-11T04:16:35;14.00;99.90
15969;DHT22;8085;53.472;9.794;2022-07-11T04:19:02;14.10;99.90
15969;DHT22;8085;53.472;9.794;2022-07-11T04:21:35;14.20;99.90
15969;DHT22;8085;53.472;9.794;2022-07-11T04:24:02;14.20;99.90
15969;DHT22;8085;53.472;9.794;2022-07-11T04:26:30;14.20;99.90
15969;DHT22;8085;53.472;9.794;2022-07-11T04:28:58;14.10;99.90
15969;DHT22;8085;53.472;9.794;2022-07-11T04:31:25;14.20;99.90
15969;DHT22;8085;53.472;9.794;2022-07-11T04:33:52;14.20;99.90
15969;DHT22;8085;53.472;9.794;2022-07-11T04:36:19;14.30;99.90
15969;DHT22;8085;53.472;9.794;2022-07-11T04:38:47;14.20;99.90
15969;DHT22;8085;53.472;9.794;2022-07-11T04:41:15;14.30;99.90
15969;DHT22;8085;53.472;9.794;2022-07-11T04:43:42;14.30;99.90
15969;DHT22;8085;53.472;9.794;2022-07-11T04:46:16;14.20;99.90
15969;DHT22;8085;53.472;9.794;2022-07-11T04:48:43;14.10;99.90
15969;DHT22;8085;53.472;9.794;2022-07-11T04:51:10;14.20;99.90
15969;DHT22;8085;53.472;9.794;2022-07-11T04:53:37;14.20;99.90
15969;DHT22;8085;53.472;9.794;2022-07-11T04:56:05;14.30;99.90
15969;DHT22;8085;53.472;9.794;2022-07-11T04:58:34;14.40;99.90
15969;DHT22;8085;53.472;9.794;2022-07-11T05:01:01;14.40;99.90
15969;DHT22;8085;53.472;9.794;2022-07-11T05:03:29;14.40;99.90
15969;DHT22;8085;53.472;9.794;2022-07-11T05:05:58;14.30;99.90
15969;DHT22;8085;53.472;9.794;2022-07-11T05:08:25;14.40;99.90
15969;DHT22;8085;53.472;9.794;2022-07-11T05:10:52;14.50;99.90
15969;DHT22;8085;53.472;9.794;2022-07-11T05:13:19;14.50;99.90
15969;DHT22;8085;53.472;9.794;2022-07-11T05:15:49;14.60;99.90
15969;DHT22;8085;53.472;9.794;2022-07-11T05:18:16;14.70;99.90
15969;DHT22;8085;53.472;9.794;2022-07-11T05:20:48;14.80;97.40
15969;DHT22;8085;53.472;9.794;2022-07-11T05:23:15;14.90;95.90
15969;DHT22;8085;53.472;9.794;2022-07-11T05:25:42;14.90;95.90
15969;DHT22;8085;53.472;9.794;2022-07-11T05:28:09;14.90;97.60
15969;DHT22;8085;53.472;9.794;2022-07-11T05:30:36;15.00;92.10
15969;DHT22;8085;53.472;9.794;2022-07-11T05:33:03;15.00;91.80
15969;DHT22;8085;53.472;9.794;2022-07-11T05:35:30;15.20;91.50
15969;DHT22;8085;53.472;9.794;2022-07-11T05:37:58;15.30;81.40
15969;DHT22;8085;53.472;9.794;2022-07-11T05:40:30;15.30;75.80
15969;DHT22;8085;53.472;9.794;2022-07-11T05:42:57;15.30;59.90
15969;DHT22;8085;53.472;9.794;2022-07-11T05:45:24;15.20;45.60
15969;DHT22;8085;53.472;9.794;2022-07-11T05:47:51;15.10;44.20
15969;DHT22;8085;53.472;9.794;2022-07-11T05:50:18;15.20;53.40
15969;DHT22;8085;53.472;9.794;2022-07-11T05:52:45;15.30;51.70
15969;DHT22;8085;53.472;9.794;2022-07-11T05:55:13;15.40;39.10
15969;DHT22;8085;53.472;9.794;2022-07-11T05:57:40;15.60;35.50
15969;DHT22;8085;53.472;9.794;2022-07-11T06:00:08;15.50;32.40
15969;DHT22;8085;53.472;9.794;2022-07-11T06:02:39;15.50;35.80
15969;DHT22;8085;53.472;9.794;2022-07-11T06:05:08;15.60;37.20
15969;DHT22;8085;53.472;9.794;2022-07-11T06:07:39;15.60;28.00
15969;DHT22;8085;53.472;9.794;2022-07-11T06:10:26;15.70;28.40
15969;DHT22;8085;53.472;9.794;2022-07-11T06:12:54;15.80;24.80
15969;DHT22;8085;53.472;9.794;2022-07-11T06:15:25;16.00;20.50
15969;DHT22;8085;53.472;9.794;2022-07-11T06:17:57;16.00;8.90
15969;DHT22;8085;53.472;9.794;2022-07-11T06:20:24;15.90;22.20
15969;DHT22;8085;53.472;9.794;2022-07-11T06:22:51;15.90;31.50
15969;DHT22;8085;53.472;9.794;2022-07-11T06:25:19;15.90;19.70
15969;DHT22;8085;53.472;9.794;2022-07-11T06:27:47;16.00;28.00
15969;DHT22;8085;53.472;9.794;2022-07-11T06:30:14;16.20;33.90
15969;DHT22;8085;53.472;9.794;2022-07-11T06:32:41;16.20;14.30
15969;DHT22;8085;53.472;9.794;2022-07-11T06:35:09;16.20;28.40
15969;DHT22;8085;53.472;9.794;2022-07-11T06:37:36;16.30;10.40
15969;DHT22;8085;53.472;9.794;2022-07-11T06:40:06;16.30;11.30
15969;DHT22;8085;53.472;9.794;2022-07-11T06:42:37;16.40;1.00
15969;DHT22;8085;53.472;9.794;2022-07-11T06:45:08;16.30;12.20
15969;DHT22;8085;53.472;9.794;2022-07-11T06:47:38;16.40;9.20
15969;DHT22;8085;53.472;9.794;2022-07-11T06:50:07;16.40;1.00
15969;DHT22;8085;53.472;9.794;2022-07-11T06:52:39;16.50;1.30
15969;DHT22;8085;53.472;9.794;2022-07-11T06:55:17;16.60;1.00
15969;DHT22;8085;53.472;9.794;2022-07-11T06:57:49;16.60;1.00
15969;DHT22;8085;53.472;9.794;2022-07-11T07:00:20;16.70;1.00
15969;DHT22;8085;53.472;9.794;2022-07-11T07:02:47;16.90;1.00
15969;DHT22;8085;53.472;9.794;2022-07-11T07:05:15;17.00;1.00
15969;DHT22;8085;53.472;9.794;2022-07-11T07:07:42;17.00;1.00
15969;DHT22;8085;53.472;9.794;2022-07-11T07:10:09;17.00;1.00
15969;DHT22;8085;53.472;9.794;2022-07-11T07:12:47;17.00;1.00
15969;DHT22;8085;53.472;9.794;2022-07-11T07:15:14;17.20;1.00
15969;DHT22;8085;53.472;9.794;2022-07-11T07:17:54;17.40;1.00
15969;DHT22;8085;53.472;9.794;2022-07-11T07:20:23;17.50;1.00
15969;DHT22;8085;53.472;9.794;2022-07-11T07:22:53;17.30;1.00
15969;DHT22;8085;53.472;9.794;2022-07-11T07:25:32;17.50;1.00
15969;DHT22;8085;53.472;9.794;2022-07-11T07:27:59;17.50;1.00
15969;DHT22;8085;53.472;9.794;2022-07-11T07:30:35;17.60;1.00
15969;DHT22;8085;53.472;9.794;2022-07-11T07:33:06;17.70;1.00
15969;DHT22;8085;53.472;9.794;2022-07-11T07:35:35;17.80;1.00
15969;DHT22;8085;53.472;9.794;2022-07-11T07:38:06;17.60;1.00
15969;DHT22;8085;53.472;9.794;2022-07-11T07:40:36;17.50;1.00
15969;DHT22;8085;53.472;9.794;2022-07-11T07:43:03;17.50;1.00
15969;DHT22;8085;53.472;9.794;2022-07-11T07:45:30;17.60;1.00
15969;DHT22;8085;53.472;9.794;2022-07-11T07:47:58;17.80;1.00
15969;DHT22;8085;53.472;9.794;2022-07-11T07:50:29;17.70;1.00
15969;DHT22;8085;53.472;9.794;2022-07-11T07:52:57;17.70;1.00
15969;DHT22;8085;53.472;9.794;2022-07-11T07:55:24;17.70;1.00
15969;DHT22;8085;53.472;9.794;2022-07-11T07:57:54;17.60;1.00
15969;DHT22;8085;53.472;9.794;2022-07-11T08:00:23;17.50;1.00
15969;DHT22;8085;53.472;9.794;2022-07-11T08:03:09;17.50;1.00
15969;DHT22;8085;53.472;9.794;2022-07-11T08:05:37;17.50;1.00
15969;DHT22;8085;53.472;9.794;2022-07-11T08:08:10;17.60;1.00
15969;DHT22;8085;53.472;9.794;2022-07-11T08:10:37;17.40;1.00
15969;DHT22;8085;53.472;9.794;2022-07-11T08:13:09;17.30;1.00
15969;DHT22;8085;53.472;9.794;2022-07-11T08:15:43;17.40;1.00
15969;DHT22;8085;53.472;9.794;2022-07-11T08:18:10;17.50;1.00
15969;DHT22;8085;53.472;9.794;2022-07-11T08:20:43;17.60;1.00
15969;DHT22;8085;53.472;9.794;2022-07-11T08:23:10;17.80;1.00
15969;DHT22;8085;53.472;9.794;2022-07-11T08:25:48;18.00;1.00
15969;DHT22;8085;53.472;9.794;2022-07-11T08:28:19;18.10;1.00
15969;DHT22;8085;53.472;9.794;2022-07-11T08:30:46;18.10;1.00
15969;DHT22;8085;53.472;9.794;2022-07-11T08:33:18;18.30;1.00
15969;DHT22;8085;53.472;9.794;2022-07-11T08:35:56;18.70;1.00
15969;DHT22;8085;53.472;9.794;2022-07-11T08:38:26;18.80;1.00
15969;DHT22;8085;53.472;9.794;2022-07-11T08:40:53;18.80;1.00
15969;DHT22;8085;53.472;9.794;2022-07-11T08:43:27;19.00;1.00
15969;DHT22;8085;53.472;9.794;2022-07-11T08:46:00;19.00;1.00
15969;DHT22;8085;53.472;9.794;2022-07-11T08:48:28;18.80;1.00
15969;DHT22;8085;53.472;9.794;2022-07-11T08:51:15;18.70;1.00
15969;DHT22;8085;53.472;9.794;2022-07-11T08:53:43;19.00;1.00
15969;DHT22;8085;53.472;9.794;2022-07-11T08:56:15;19.00;1.00
15969;DHT22;8085;53.472;9.794;2022-07-11T08:58:47;18.90;1.00
15969;DHT22;8085;53.472;9.794;2022-07-11T09:01:18;19.30;1.00
15969;DHT22;8085;53.472;9.794;2022-07-11T09:03:47;19.60;1.00
15969;DHT22;8085;53.472;9.794;2022-07-11T09:06:25;19.30;1.00
15969;DHT22;8085;53.472;9.794;2022-07-11T09:08:58;19.10;1.00
15969;DHT22;8085;53.472;9.794;2022-07-11T09:11:28;19.30;1.00
15969;DHT22;8085;53.472;9.794;2022-07-11T09:13:55;19.40;1.00
15969;DHT22;8085;53.472;9.794;2022-07-11T09:16:26;19.40;1.00
15969;DHT22;8085;53.472;9.794;2022-07-11T09:18:56;19.20;1.00
15969;DHT22;8085;53.472;9.794;2022-07-11T09:21:25;19.20;1.00
15969;DHT22;8085;53.472;9.794;2022-07-11T09:24:11;19.30;1.00
15969;DHT22;8085;53.472;9.794;2022-07-11T09:26:56;19.30;1.00
15969;DHT22;8085;53.472;9.794;2022-07-11T09:29:25;19.50;1.00
15969;DHT22;8085;53.472;9.794;2022-07-11T09:31:53;19.40;1.00
15969;DHT22;8085;53.472;9.794;2022-07-11T09:34:21;19.20;1.00
15969;DHT22;8085;53.472;9.794;2022-07-11T09:36:53;18.90;1.00
15969;DHT22;8085;53.472;9.794;2022-07-11T09:39:22;18.90;1.00
15969;DHT22;8085;53.472;9.794;2022-07-11T09:41:51;18.80;1.00
15969;DHT22;8085;53.472;9.794;2022-07-11T09:44:20;18.80;1.00
15969;DHT22;8085;53.472;9.794;2022-07-11T09:46:49;18.90;1.00
15969;DHT22;8085;53.472;9.794;2022-07-11T09:49:29;18.90;1.00
15969;DHT22;8085;53.472;9.794;2022-07-11T09:52:06;18.70;1.00
15969;DHT22;8085;53.472;9.794;2022-07-11T09:54:33;18.60;1.00
15969;DHT22;8085;53.472;9.794;2022-07-11T09:57:09;18.60;1.00
15969;DHT22;8085;53.472;9.794;2022-07-11T09:59:36;18.60;1.00
15969;DHT22;8085;53.472;9.794;2022-07-11T10:02:03;18.60;1.00
15969;DHT22;8085;53.472;9.794;2022-07-11T10:04:31;18.60;1.00
15969;DHT22;8085;53.472;9.794;2022-07-11T10:06:59;18.70;1.00
15969;DHT22;8085;53.472;9.794;2022-07-11T10:09:26;18.80;1.00
15969;DHT22;8085;53.472;9.794;2022-07-11T10:11:54;18.90;1.00
15969;DHT22;8085;53.472;9.794;2022-07-11T10:14:22;18.90;1.00
15969;DHT22;8085;53.472;9.794;2022-07-11T10:16:57;19.00;1.00
15969;DHT22;8085;53.472;9.794;2022-07-11T10:19:34;19.10;1.00
15969;DHT22;8085;53.472;9.794;2022-07-11T10:22:15;19.10;1.00
15969;DHT22;8085;53.472;9.794;2022-07-11T10:24:51;19.00;1.00
15969;DHT22;8085;53.472;9.794;2022-07-11T10:27:27;19.00;1.00
15969;DHT22;8085;53.472;9.794;2022-07-11T10:29:56;18.90;1.00
15969;DHT22;8085;53.472;9.794;2022-07-11T10:32:23;18.90;1.00
15969;DHT22;8085;53.472;9.794;2022-07-11T10:35:10;18.90;1.00
15969;DHT22;8085;53.472;9.794;2022-07-11T10:37:50;19.00;1.00
15969;DHT22;8085;53.472;9.794;2022-07-11T10:43:35;19.60;1.00
15969;DHT22;8085;53.472;9.794;2022-07-11T10:46:05;19.80;1.00
15969;DHT22;8085;53.472;9.794;2022-07-11T10:48:35;19.40;1.00
15969;DHT22;8085;53.472;9.794;2022-07-11T10:51:14;19.40;1.00
15969;DHT22;8085;53.472;9.794;2022-07-11T10:53:49;19.70;1.00
15969;DHT22;8085;53.472;9.794;2022-07-11T10:56:49;20.00;1.00
15969;DHT22;8085;53.472;9.794;2022-07-11T10:59:18;20.50;1.00
15969;DHT22;8085;53.472;9.794;2022-07-11T11:02:03;20.90;1.00
15969;DHT22;8085;53.472;9.794;2022-07-11T11:04:47;21.00;1.00
15969;DHT22;8085;53.472;9.794;2022-07-11T11:07:32;20.60;1.00
15969;DHT22;8085;53.472;9.794;2022-07-11T11:10:03;20.40;1.00
15969;DHT22;8085;53.472;9.794;2022-07-11T11:15:39;20.40;1.00
15969;DHT22;8085;53.472;9.794;2022-07-11T11:18:42;20.30;1.00
15969;DHT22;8085;53.472;9.794;2022-07-11T11:21:24;20.30;1.00
15969;DHT22;8085;53.472;9.794;2022-07-11T11:24:06;20.40;1.00
15969;DHT22;8085;53.472;9.794;2022-07-11T11:27:00;20.40;1.00
15969;DHT22;8085;53.472;9.794;2022-07-11T11:29:31;21.00;1.00
15969;DHT22;8085;53.472;9.794;2022-07-11T11:32:01;20.70;1.00
15969;DHT22;8085;53.472;9.794;2022-07-11T11:34:34;20.50;1.00
15969;DHT22;8085;53.472;9.794;2022-07-11T11:37:05;20.30;1.00
15969;DHT22;8085;53.472;9.794;2022-07-11T11:39:38;20.50;1.00
15969;DHT22;8085;53.472;9.794;2022-07-11T11:42:24;20.90;1.00
15969;DHT22;8085;53.472;9.794;2022-07-11T11:44:57;21.30;99.90
15969;DHT22;8085;53.472;9.794;2022-07-11T11:47:28;21.50;1.00
15969;DHT22;8085;53.472;9.794;2022-07-11T11:50:02;21.90;99.90
15969;DHT22;8085;53.472;9.794;2022-07-11T11:52:36;22.10;99.90
15969;DHT22;8085;53.472;9.794;2022-07-11T11:55:07;21.60;26.00
15969;DHT22;8085;53.472;9.794;2022-07-11T11:57:41;21.50;99.90
15969;DHT22;8085;53.472;9.794;2022-07-11T12:00:20;21.60;99.90
15969;DHT22;8085;53.472;9.794;2022-07-11T12:02:52;21.50;99.90
15969;DHT22;8085;53.472;9.794;2022-07-11T12:05:19;21.10;99.90
15969;DHT22;8085;53.472;9.794;2022-07-11T12:07:47;20.70;1.00
15969;DHT22;8085;53.472;9.794;2022-07-11T12:10:15;20.50;1.00
15969;DHT22;8085;53.472;9.794;2022-07-11T12:12:43;20.60;1.00
15969;DHT22;8085;53.472;9.794;2022-07-11T12:15:29;21.20;99.90
15969;DHT22;8085;53.472;9.794;2022-07-11T12:17:58;21.50;99.90
15969;DHT22;8085;53.472;9.794;2022-07-11T12:20:41;21.60;93.60
15969;DHT22;8085;53.472;9.794;2022-07-11T12:23:09;21.90;99.90
15969;DHT22;8085;53.472;9.794;2022-07-11T12:25:37;21.90;1.00
15969;DHT22;8085;53.472;9.794;2022-07-11T12:28:06;22.00;1.00
15969;DHT22;8085;53.472;9.794;2022-07-11T12:30:35;22.40;1.00
15969;DHT22;8085;53.472;9.794;2022-07-11T12:33:09;22.70;81.20
15969;DHT22;8085;53.472;9.794;2022-07-11T12:35:44;22.90;99.90
15969;DHT22;8085;53.472;9.794;2022-07-11T12:38:18;22.70;73.20
15969;DHT22;8085;53.472;9.794;2022-07-11T12:41:00;22.90;1.00
15969;DHT22;8085;53.472;9.794;2022-07-11T12:43:42;23.10;99.90
15969;DHT22;8085;53.472;9.794;2022-07-11T12:46:30;23.00;99.90
15969;DHT22;8085;53.472;9.794;2022-07-11T12:49:00;22.90;90.30
15969;DHT22;8085;53.472;9.794;2022-07-11T12:51:28;22.80;99.90
15969;DHT22;8085;53.472;9.794;2022-07-11T12:54:02;22.90;1.00
15969;DHT22;8085;53.472;9.794;2022-07-11T12:56:29;23.10;99.90
15969;DHT22;8085;53.472;9.794;2022-07-11T12:58:58;23.40;27.50
15969;DHT22;8085;53.472;9.794;2022-07-11T13:01:25;23.30;1.00
15969;DHT22;8085;53.472;9.794;2022-07-11T13:03:52;23.20;1.00
15969;DHT22;8085;53.472;9.794;2022-07-11T13:06:20;23.40;1.00
15969;DHT22;8085;53.472;9.794;2022-07-11T13:09:08;23.60;1.00
15969;DHT22;8085;53.472;9.794;2022-07-11T13:11:34;23.60;1.00
15969;DHT22;8085;53.472;9.794;2022-07-11T13:14:03;23.40;99.90
15969;DHT22;8085;53.472;9.794;2022-07-11T13:16:50;22.90;99.90
15969;DHT22;8085;53.472;9.794;2022-07-11T13:19:16;22.80;1.00
15969;DHT22;8085;53.472;9.794;2022-07-11T13:21:43;23.10;1.00
15969;DHT22;8085;53.472;9.794;2022-07-11T13:24:10;23.50;1.00
15969;DHT22;8085;53.472;9.794;2022-07-11T13:26:37;23.90;1.00
15969;DHT22;8085;53.472;9.794;2022-07-11T13:29:05;24.00;1.00
15969;DHT22;8085;53.472;9.794;2022-07-11T13:31:32;24.00;99.90
15969;DHT22;8085;53.472;9.794;2022-07-11T13:33:59;24.00;99.90
15969;DHT22;8085;53.472;9.794;2022-07-11T13:36:26;24.00;1.00
15969;DHT22;8085;53.472;9.794;2022-07-11T13:38:53;24.10;99.90
15969;DHT22;8085;53.472;9.794;2022-07-11T13:41:20;24.00;99.90
15969;DHT22;8085;53.472;9.794;2022-07-11T13:43:47;24.30;1.00
15969;DHT22;8085;53.472;9.794;2022-07-11T13:46:15;24.30;99.90
15969;DHT22;8085;53.472;9.794;2022-07-11T13:48:44;24.30;1.00
15969;DHT22;8085;53.472;9.794;2022-07-11T13:51:11;24.60;99.90
15969;DHT22;8085;53.472;9.794;2022-07-11T13:53:38;24.60;1.00
15969;DHT22;8085;53.472;9.794;2022-07-11T13:56:05;24.50;1.00
15969;DHT22;8085;53.472;9.794;2022-07-11T13:58:33;24.20;1.00
15969;DHT22;8085;53.472;9.794;2022-07-11T14:01:00;23.90;99.90
15969;DHT22;8085;53.472;9.794;2022-07-11T14:03:29;24.10;1.00
15969;DHT22;8085;53.472;9.794;2022-07-11T14:05:56;24.30;1.00
15969;DHT22;8085;53.472;9.794;2022-07-11T14:08:23;24.60;1.00
15969;DHT22;8085;53.472;9.794;2022-07-11T14:10:57;24.70;1.00
15969;DHT22;8085;53.472;9.794;2022-07-11T14:13:24;24.10;1.00
15969;DHT22;8085;53.472;9.794;2022-07-11T14:15:54;24.10;99.90
15969;DHT22;8085;53.472;9.794;2022-07-11T14:18:21;24.00;99.90
15969;DHT22;8085;53.472;9.794;2022-07-11T14:20:49;24.10;98.50
15969;DHT22;8085;53.472;9.794;2022-07-11T14:23:16;24.30;1.00
15969;DHT22;8085;53.472;9.794;2022-07-11T14:25:43;24.50;99.90
15969;DHT22;8085;53.472;9.794;2022-07-11T14:28:11;24.60;1.00
15969;DHT22;8085;53.472;9.794;2022-07-11T14:30:38;24.50;99.90
15969;DHT22;8085;53.472;9.794;2022-07-11T14:33:05;23.80;99.90
15969;DHT22;8085;53.472;9.794;2022-07-11T14:35:32;23.70;1.00
15969;DHT22;8085;53.472;9.794;2022-07-11T14:38:01;23.90;99.90
15969;DHT22;8085;53.472;9.794;2022-07-11T14:40:28;23.60;1.00
15969;DHT22;8085;53.472;9.794;2022-07-11T14:42:55;23.70;99.90
15969;DHT22;8085;53.472;9.794;2022-07-11T14:45:23;24.00;1.00
15969;DHT22;8085;53.472;9.794;2022-07-11T14:47:52;24.00;1.00
15969;DHT22;8085;53.472;9.794;2022-07-11T14:50:23;23.80;99.90
15969;DHT22;8085;53.472;9.794;2022-07-11T14:52:51;23.70;1.00
15969;DHT22;8085;53.472;9.794;2022-07-11T14:55:19;23.90;99.90
15969;DHT22;8085;53.472;9.794;2022-07-11T14:57:47;24.10;99.90
15969;DHT22;8085;53.472;9.794;2022-07-11T15:00:14;24.40;47.30
15969;DHT22;8085;53.472;9.794;2022-07-11T15:02:43;24.40;99.90
15969;DHT22;8085;53.472;9.794;2022-07-11T15:05:27;24.00;1.00
15969;DHT22;8085;53.472;9.794;2022-07-11T15:07:57;23.80;1.00
15969;DHT22;8085;53.472;9.794;2022-07-11T15:10:42;23.90;99.90
15969;DHT22;8085;53.472;9.794;2022-07-11T15:13:27;23.90;1.00
15969;DHT22;8085;53.472;9.794;2022-07-11T15:15:53;23.80;97.70
15969;DHT22;8085;53.472;9.794;2022-07-11T15:18:20;23.90;94.50
15969;DHT22;8085;53.472;9.794;2022-07-11T15:20:47;24.00;1.00
15969;DHT22;8085;53.472;9.794;2022-07-11T15:23:14;24.10;99.90
15969;DHT22;8085;53.472;9.794;2022-07-11T15:25:42;24.00;1.00
15969;DHT22;8085;53.472;9.794;2022-07-11T15:28:09;24.00;99.90
15969;DHT22;8085;53.472;9.794;2022-07-11T15:30:36;24.20;99.90
15969;DHT22;8085;53.472;9.794;2022-07-11T15:33:03;24.00;99.90
15969;DHT22;8085;53.472;9.794;2022-07-11T15:35:30;24.00;99.90
15969;DHT22;8085;53.472;9.794;2022-07-11T15:37:57;24.00;99.90
15969;DHT22;8085;53.472;9.794;2022-07-11T15:40:24;24.00;94.80
15969;DHT22;8085;53.472;9.794;2022-07-11T15:42:53;24.00;90.30
15969;DHT22;8085;53.472;9.794;2022-07-11T15:45:19;24.10;1.00
15969;DHT22;8085;53.472;9.794;2022-07-11T15:47:46;24.20;1.00
15969;DHT22;8085;53.472;9.794;2022-07-11T15:50:13;24.30;1.00
15969;DHT22;8085;53.472;9.794;2022-07-11T15:52:40;24.40;99.90
15969;DHT22;8085;53.472;9.794;2022-07-11T15:55:07;24.30;99.90
15969;DHT22;8085;53.472;9.794;2022-07-11T15:57:34;24.30;1.00
15969;DHT22;8085;53.472;9.794;2022-07-11T16:00:03;24.30;1.00
15969;DHT22;8085;53.472;9.794;2022-07-11T16:02:33;24.40;1.00
15969;DHT22;8085;53.472;9.794;2022-07-11T16:05:00;24.50;1.00
15969;DHT22;8085;53.472;9.794;2022-07-11T16:07:27;24.50;38.60
15969;DHT22;8085;53.472;9.794;2022-07-11T16:09:55;24.40;19.00
15969;DHT22;8085;53.472;9.794;2022-07-11T16:12:22;24.30;1.00
15969;DHT22;8085;53.472;9.794;2022-07-11T16:14:49;24.20;1.00
15969;DHT22;8085;53.472;9.794;2022-07-11T16:17:18;24.20;99.90